Time;durP1;ratioP1;P1;durP2;ratioP2;P2;SDS_P1;SDS_P2;PMS_P1;PMS_P2;Temp;Humidity;BMP_temperature;BMP_pressure;BME280_temperature;BME280_humidity;BME280_pressure;Samples;Min_cycle;Max_cycle;Signal;HPM_P1;HPM_P2
2022/01/14 00:02:05;;;;;;;9.10;5.60;;;;;;;18.47;44.69;103734.41;5053274;28;20078;-61
2022/01/14 00:04:31;;;;;;;8.23;5.68;;;;;;;18.44;44.65;103729.25;5052986;28;20100;-61
2022/01/14 00:06:57;;;;;;;8.05;5.65;;;;;;;18.42;44.77;103731.09;5052470;28;20522;-60
2022/01/14 00:09:22;;;;;;;8.65;5.53;;;;;;;18.38;44.58;103733.91;5052983;28;20017;-61
2022/01/14 00:11:53;;;;;;;7.25;5.07;;;;;;;18.37;44.50;103737.44;5052658;28;20037;-60
2022/01/14 00:14:23;;;;;;;7.95;5.05;;;;;;;18.34;44.70;103732.28;5052554;28;20075;-61
2022/01/14 00:16:49;;;;;;;7.13;5.60;;;;;;;18.31;44.60;103734.13;5052694;28;20040;-61
2022/01/14 00:19:15;;;;;;;7.93;5.53;;;;;;;18.28;44.75;103730.75;5053055;28;20029;-60
2022/01/14 00:21:42;;;;;;;7.13;5.22;;;;;;;18.24;44.77;103727.31;5051989;28;20027;-60
2022/01/14 00:24:13;;;;;;;7.80;5.50;;;;;;;18.23;44.78;103728.28;5052829;28;20071;-60
2022/01/14 00:32:18;;;;;;;8.65;5.05;;;;;;;18.16;44.68;103716.19;5053079;28;20044;-61
2022/01/14 00:34:44;;;;;;;7.72;5.50;;;;;;;18.12;44.54;103710.16;5052501;28;20025;-59
2022/01/14 00:37:09;;;;;;;8.43;5.25;;;;;;;18.11;44.93;103703.16;5051577;28;20370;-60
2022/01/14 00:39:34;;;;;;;7.20;5.17;;;;;;;18.09;44.79;103705.00;5052517;28;20029;-60
2022/01/14 00:42:00;;;;;;;7.57;5.28;;;;;;;18.05;44.65;103700.75;5051790;28;20318;-60
2022/01/14 00:44:25;;;;;;;7.40;5.15;;;;;;;18.04;44.90;103706.94;5052717;28;20029;-60
2022/01/14 00:46:53;;;;;;;8.20;5.22;;;;;;;18.02;44.76;103700.00;5052406;28;20044;-60
2022/01/14 00:49:20;;;;;;;8.40;5.47;;;;;;;17.99;44.73;103693.06;5051849;28;20460;-60
2022/01/14 00:51:46;;;;;;;7.45;5.40;;;;;;;17.97;45.15;103686.97;5052146;28;20465;-60
2022/01/14 00:54:12;;;;;;;7.28;5.20;;;;;;;17.95;44.85;103683.53;5052637;28;20044;-60
2022/01/14 00:59:15;;;;;;;8.35;5.20;;;;;;;17.92;44.49;103666.00;5051453;28;20477;-60
2022/01/14 01:01:48;;;;;;;7.47;5.43;;;;;;;17.91;45.24;103664.31;5052370;28;20051;-60
2022/01/14 01:04:28;;;;;;;7.68;5.15;;;;;;;17.89;44.92;103666.13;5051699;28;20171;-60
2022/01/14 01:06:54;;;;;;;8.30;5.10;;;;;;;17.88;45.11;103667.06;5052362;28;20507;-61
2022/01/14 01:09:23;;;;;;;7.63;5.18;;;;;;;17.86;44.79;103665.34;5052498;28;20029;-61
2022/01/14 01:11:54;;;;;;;6.88;4.82;;;;;;;17.83;44.88;103663.69;5051262;28;20037;-61
2022/01/14 01:14:32;;;;;;;6.57;5.15;;;;;;;17.82;45.15;103667.25;5052329;28;20025;-61
2022/01/14 01:17:01;;;;;;;7.32;5.10;;;;;;;17.80;44.95;103661.16;5052099;28;20051;-60
2022/01/14 01:19:26;;;;;;;7.38;4.63;;;;;;;17.79;44.60;103655.94;5052527;28;20036;-61
2022/01/14 01:21:52;;;;;;;8.27;4.82;;;;;;;17.77;44.80;103650.72;5052140;28;20017;-60
2022/01/14 01:24:18;;;;;;;7.13;4.40;;;;;;;17.75;45.04;103644.63;5051574;28;20104;-61
2022/01/14 01:26:44;;;;;;;6.43;4.70;;;;;;;17.73;45.19;103646.47;5051959;28;20426;-61
2022/01/14 01:31:40;;;;;;;6.38;4.47;;;;;;;17.71;44.83;103651.78;5051431;28;20040;-60
2022/01/14 01:34:10;;;;;;;7.13;4.68;;;;;;;17.72;44.99;103653.53;5052125;28;20431;-60
2022/01/14 01:36:37;;;;;;;6.85;4.43;;;;;;;17.73;44.71;103649.94;5051456;28;20402;-60
2022/01/14 01:39:05;;;;;;;6.65;4.60;;;;;;;17.77;44.79;103656.00;5051392;28;20075;-60
2022/01/14 01:41:31;;;;;;;6.60;4.40;;;;;;;17.81;44.69;103659.38;5051755;28;20037;-60
2022/01/14 01:43:58;;;;;;;6.78;4.28;;;;;;;17.81;44.25;103652.31;5053847;28;20021;-60
2022/01/14 01:46:23;;;;;;;6.40;4.45;;;;;;;17.83;44.14;103641.72;5055128;28;20037;-60
2022/01/14 01:48:51;;;;;;;7.70;4.28;;;;;;;17.84;44.30;103641.66;5055599;28;20395;-61
2022/01/14 01:51:21;;;;;;;6.18;4.43;;;;;;;17.85;44.17;103640.75;5055694;28;20070;-60
2022/01/14 01:53:47;;;;;;;6.45;4.43;;;;;;;17.87;44.17;103635.44;5054508;28;20017;-60
2022/01/14 01:56:13;;;;;;;6.60;4.20;;;;;;;17.87;44.01;103635.44;5055406;28;20040;-60
2022/01/14 01:58:41;;;;;;;6.97;3.90;;;;;;;17.87;43.88;103632.78;5055391;28;20029;-60
2022/01/14 02:01:08;;;;;;;6.88;4.60;;;;;;;17.87;43.95;103635.44;5054926;28;20028;-60
2022/01/14 02:03:35;;;;;;;6.80;4.75;;;;;;;17.89;44.08;103645.03;5055158;28;20044;-60
2022/01/14 02:06:02;;;;;;;6.55;4.10;;;;;;;17.88;43.82;103645.06;5055486;28;20028;-60
2022/01/14 02:08:27;;;;;;;5.85;4.15;;;;;;;17.87;43.86;103638.91;5054763;28;20024;-61
2022/01/14 02:10:52;;;;;;;6.32;4.15;;;;;;;17.87;43.82;103635.44;5054917;28;20128;-60
2022/01/14 02:13:18;;;;;;;6.68;4.25;;;;;;;17.87;43.66;103648.63;5054748;28;20479;-61
2022/01/14 02:23:24;;;;;;;7.50;4.13;;;;;;;17.85;43.67;103626.69;5055056;28;20056;-60
2022/01/14 02:25:49;;;;;;;6.25;4.13;;;;;;;17.84;43.89;103622.34;5054818;28;20040;-59
2022/01/14 02:28:20;;;;;;;6.38;4.20;;;;;;;17.83;43.99;103625.88;5054308;28;20438;-60
2022/01/14 02:30:47;;;;;;;6.18;3.90;;;;;;;17.84;43.99;103617.06;5054682;28;20029;-60
2022/01/14 02:33:14;;;;;;;5.85;3.92;;;;;;;17.84;43.90;103617.06;5055050;28;20073;-60
2022/01/14 02:35:42;;;;;;;5.93;3.78;;;;;;;17.84;43.87;103606.50;5053505;28;20068;-59
2022/01/14 02:38:12;;;;;;;5.75;3.80;;;;;;;17.85;44.00;103605.56;5055169;28;20021;-60
2022/01/14 02:40:39;;;;;;;5.70;3.80;;;;;;;17.85;43.57;103597.66;5054934;28;20025;-59
2022/01/14 02:43:11;;;;;;;5.50;3.65;;;;;;;17.86;43.70;103602.03;5054193;28;20045;-60
2022/01/14 02:45:37;;;;;;;6.35;3.75;;;;;;;17.87;43.92;103601.13;5054551;28;20025;-59
2022/01/14 02:48:03;;;;;;;4.80;3.00;;;;;;;17.87;43.46;103607.25;5054826;28;20033;-60
2022/01/14 02:56:09;;;;;;;6.00;3.90;;;;;;;17.87;43.32;103601.13;5053749;28;20037;-60
2022/01/14 02:58:36;;;;;;;5.38;3.80;;;;;;;17.86;43.54;103588.84;5054009;28;20112;-61
2022/01/14 03:01:08;;;;;;;6.50;3.80;;;;;;;17.86;43.84;103592.31;5054573;28;20104;-60
2022/01/14 03:03:34;;;;;;;6.68;3.78;;;;;;;17.86;43.79;103599.41;5053453;28;20123;-60
2022/01/14 03:06:01;;;;;;;6.30;4.53;;;;;;;17.85;43.96;103601.19;5054347;28;20025;-60
2022/01/14 03:08:27;;;;;;;6.32;3.45;;;;;;;17.87;43.96;103601.13;5054353;28;20032;-60
2022/01/14 03:10:57;;;;;;;5.82;3.70;;;;;;;17.89;43.71;103599.31;5053095;28;20033;-60
2022/01/14 03:13:23;;;;;;;5.00;3.40;;;;;;;17.89;43.74;103597.53;5054157;28;20025;-60
2022/01/14 03:15:48;;;;;;;6.88;3.83;;;;;;;17.90;43.98;103593.97;5053821;28;20017;-60
2022/01/14 03:18:17;;;;;;;5.00;3.22;;;;;;;17.90;43.51;103604.53;5053107;28;20558;-60
2022/01/14 03:20:48;;;;;;;7.05;3.55;;;;;;;17.91;43.46;103601.00;5053698;28;20017;-60
2022/01/14 03:23:15;;;;;;;6.10;3.58;;;;;;;17.90;43.62;103596.63;5054165;28;20381;-60
2022/01/14 03:25:50;;;;;;;5.15;3.28;;;;;;;17.90;43.32;103598.41;5052771;28;20056;-60
2022/01/14 03:28:21;;;;;;;5.15;3.05;;;;;;;17.90;43.53;103599.25;5053469;28;20041;-60
2022/01/14 03:30:47;;;;;;;5.80;3.67;;;;;;;17.89;43.54;103600.16;5052692;28;20496;-60
2022/01/14 03:33:14;;;;;;;5.60;3.55;;;;;;;17.88;43.47;103594.94;5053844;28;20036;-60
2022/01/14 03:35:39;;;;;;;5.35;3.30;;;;;;;17.88;43.15;103593.19;5053266;28;20037;-61
2022/01/14 03:38:05;;;;;;;5.15;3.40;;;;;;;17.87;43.61;103603.75;5052972;28;20025;-60
2022/01/14 03:40:30;;;;;;;6.30;3.38;;;;;;;17.89;43.66;103608.06;5053222;28;20396;-61
2022/01/14 03:42:55;;;;;;;5.30;3.27;;;;;;;17.90;43.90;103599.25;5053700;28;20385;-61
2022/01/14 03:45:20;;;;;;;5.93;3.53;;;;;;;17.91;43.88;103598.34;5052762;28;20376;-60
2022/01/14 03:47:46;;;;;;;5.03;3.00;;;;;;;17.91;43.70;103601.00;5053143;28;20274;-60
2022/01/14 03:50:11;;;;;;;4.77;3.30;;;;;;;17.93;43.58;103595.66;5053410;28;20285;-61
2022/01/14 03:52:36;;;;;;;5.50;3.25;;;;;;;17.92;43.76;103592.13;5052330;28;20726;-60
2022/01/14 03:55:07;;;;;;;6.17;3.37;;;;;;;17.92;43.44;103592.13;5053194;28;20041;-60
2022/01/14 03:57:33;;;;;;;5.38;3.45;;;;;;;17.92;43.70;103596.56;5053063;28;20427;-60
2022/01/14 04:00:05;;;;;;;6.43;3.67;;;;;;;17.92;43.39;103592.13;5052417;28;20465;-60
2022/01/14 04:02:30;;;;;;;5.30;3.15;;;;;;;17.91;43.57;103601.00;5052808;28;20056;-61
2022/01/14 04:04:55;;;;;;;4.83;2.87;;;;;;;17.91;43.08;103597.47;5053166;28;20503;-60
2022/01/14 04:07:23;;;;;;;4.87;3.30;;;;;;;17.92;43.64;103599.22;5051967;28;20278;-60
2022/01/14 04:09:49;;;;;;;5.57;3.28;;;;;;;17.92;43.49;103597.41;5052978;28;20286;-60
2022/01/14 04:12:30;;;;;;;5.72;3.30;;;;;;;17.93;43.78;103601.78;5053176;28;20056;-60
2022/01/14 04:15:45;;;;;;;5.00;2.97;;;;;;;17.93;43.83;103604.44;5052396;28;20013;-61
2022/01/14 04:17:43;;;;;;;4.63;3.10;;;;;;;17.94;43.42;103597.34;5048462;28;20099;-61
2022/01/14 04:20:15;;;;;;;5.22;3.25;;;;;;;17.94;43.62;103594.72;5052370;28;20378;-61
2022/01/14 04:22:40;;;;;;;4.72;3.03;;;;;;;17.94;43.53;103587.69;5052724;28;20481;-61
2022/01/14 04:25:06;;;;;;;5.85;3.08;;;;;;;17.95;43.56;103585.91;5053113;28;20055;-61
2022/01/14 04:27:31;;;;;;;5.63;3.00;;;;;;;17.95;43.41;103588.53;5051774;28;20388;-61
2022/01/14 04:29:56;;;;;;;4.93;2.90;;;;;;;17.94;43.13;103590.31;5052832;28;20047;-61
2022/01/14 04:32:21;;;;;;;5.43;3.13;;;;;;;17.92;43.36;103591.28;5052531;28;20290;-61
2022/01/14 04:34:46;;;;;;;5.50;2.90;;;;;;;17.92;43.37;103593.94;5051865;28;20367;-61
2022/01/14 04:37:12;;;;;;;4.63;2.80;;;;;;;17.92;43.39;103584.22;5052575;28;20302;-61
2022/01/14 04:39:37;;;;;;;4.70;3.07;;;;;;;17.91;43.45;103582.53;5052428;28;20057;-61
2022/01/14 04:42:02;;;;;;;5.17;3.47;;;;;;;17.92;43.76;103580.75;5052036;28;20286;-61
2022/01/14 04:44:28;;;;;;;4.60;2.92;;;;;;;17.93;43.58;103582.47;5052745;28;20780;-61
2022/01/14 04:47:12;;;;;;;4.70;2.73;;;;;;;17.94;43.67;103570.97;5052469;28;20527;-61
2022/01/14 04:49:37;;;;;;;4.35;2.85;;;;;;;17.95;43.38;103573.56;5051793;28;20273;-61
2022/01/14 04:52:03;;;;;;;4.63;2.70;;;;;;;17.96;43.33;103563.88;5052831;28;20028;-61
2022/01/14 04:54:29;;;;;;;4.35;2.88;;;;;;;17.95;43.33;103559.50;5052642;28;20292;-61
2022/01/14 04:56:54;;;;;;;4.50;2.97;;;;;;;17.95;43.49;103562.16;5051608;28;20127;-61
2022/01/14 04:59:19;;;;;;;4.60;2.60;;;;;;;17.95;43.36;103559.50;5052602;28;20032;-61
2022/01/14 05:01:44;;;;;;;4.75;3.00;;;;;;;17.94;43.42;103550.75;5052147;28;20769;-60
2022/01/14 05:04:10;;;;;;;4.60;2.60;;;;;;;17.94;43.39;103548.13;5052194;28;20061;-61
2022/01/14 05:06:40;;;;;;;5.23;2.70;;;;;;;17.94;43.22;103541.94;5052437;28;20273;-60
2022/01/14 05:09:16;;;;;;;4.93;2.58;;;;;;;17.94;43.33;103548.13;5052046;28;20320;-61
2022/01/14 05:11:51;;;;;;;5.05;2.55;;;;;;;17.94;43.35;103544.59;5052297;28;20025;-60
2022/01/14 05:14:16;;;;;;;5.80;2.85;;;;;;;17.94;43.47;103537.56;5052458;28;20041;-61
2022/01/14 05:16:44;;;;;;;5.30;2.90;;;;;;;17.94;43.01;103548.13;5051582;28;20380;-60
2022/01/14 05:19:10;;;;;;;4.85;2.67;;;;;;;17.95;43.12;103541.03;5054582;28;20021;-61
2022/01/14 05:21:35;;;;;;;5.07;2.60;;;;;;;17.93;43.08;103534.97;5055990;28;20074;-60
2022/01/14 05:24:00;;;;;;;5.30;2.92;;;;;;;17.95;43.07;103541.91;5055490;28;20075;-60
2022/01/14 05:26:46;;;;;;;4.73;2.60;;;;;;;17.93;42.89;103540.25;5056316;28;20029;-60
2022/01/14 05:29:11;;;;;;;4.32;2.65;;;;;;;17.93;43.16;103534.97;5055906;28;20290;-60
2022/01/14 05:31:45;;;;;;;4.82;2.40;;;;;;;17.92;42.86;103544.66;5055168;28;20111;-60
2022/01/14 05:34:20;;;;;;;4.68;2.60;;;;;;;17.92;43.15;103538.53;5056192;28;20033;-60
2022/01/14 05:36:45;;;;;;;5.32;3.00;;;;;;;17.93;43.15;103540.25;5055424;28;20059;-60
2022/01/14 05:39:11;;;;;;;4.27;2.53;;;;;;;17.93;43.37;103527.91;5055019;28;20461;-60
2022/01/14 05:41:37;;;;;;;4.40;2.70;;;;;;;17.91;43.16;103532.41;5055535;28;20278;-61
2022/01/14 05:44:04;;;;;;;4.60;2.33;;;;;;;17.95;43.09;103535.75;5055975;28;20032;-60
2022/01/14 05:46:29;;;;;;;4.60;2.47;;;;;;;17.94;43.17;103534.03;5054841;28;20053;-60
2022/01/14 05:48:55;;;;;;;5.45;2.72;;;;;;;17.95;43.26;103528.69;5055742;28;20406;-60
2022/01/14 05:51:20;;;;;;;4.10;2.50;;;;;;;17.96;43.25;103532.22;5054758;28;20025;-61
2022/01/14 05:53:48;;;;;;;5.00;2.53;;;;;;;17.94;43.13;103528.75;5055211;28;20386;-60
2022/01/14 05:56:13;;;;;;;4.95;2.38;;;;;;;17.95;42.96;103525.22;5055623;28;20320;-60
2022/01/14 05:58:38;;;;;;;5.20;2.78;;;;;;;17.92;43.15;103520.91;5054628;28;20037;-60
2022/01/14 06:01:04;;;;;;;4.33;2.37;;;;;;;17.92;42.89;103518.25;5055612;28;20035;-60
2022/01/14 06:03:29;;;;;;;4.70;2.50;;;;;;;17.92;43.42;103518.25;5055483;28;20381;-60
2022/01/14 06:05:57;;;;;;;4.40;2.55;;;;;;;17.98;43.68;103526.88;5054444;28;20476;-59
2022/01/14 06:08:23;;;;;;;4.10;2.40;;;;;;;18.02;44.26;103531.09;5055201;28;20036;-60
2022/01/14 06:10:48;;;;;;;5.38;3.00;;;;;;;18.04;44.19;103529.25;5054792;28;20583;-60
2022/01/14 06:13:13;;;;;;;5.35;2.53;;;;;;;18.06;43.78;103527.44;5054615;28;20057;-60
2022/01/14 06:15:39;;;;;;;4.13;2.20;;;;;;;18.08;43.99;103523.81;5054842;28;20461;-60
2022/01/14 06:18:04;;;;;;;3.80;2.27;;;;;;;18.11;44.51;103533.41;5055064;28;20036;-60
2022/01/14 06:20:29;;;;;;;5.70;2.50;;;;;;;18.14;44.83;103528.00;5054016;28;20320;-60
2022/01/14 06:22:54;;;;;;;4.47;2.38;;;;;;;18.16;44.64;103534.06;5055051;28;20286;-60
2022/01/14 06:25:20;;;;;;;4.65;2.20;;;;;;;18.18;44.80;103532.22;5054918;28;20064;-59
2022/01/14 06:27:45;;;;;;;5.75;2.53;;;;;;;18.21;44.58;103534.75;5055436;28;20029;-58
2022/01/14 06:30:11;;;;;;;5.80;2.53;;;;;;;18.23;44.85;103534.69;5054945;28;20061;-60
2022/01/14 06:32:41;;;;;;;4.88;2.45;;;;;;;18.24;44.91;103537.25;5055165;28;20338;-60
2022/01/14 06:35:09;;;;;;;4.90;2.45;;;;;;;18.26;44.72;103537.22;5054547;28;20029;-60
2022/01/14 06:37:34;;;;;;;4.35;2.55;;;;;;;18.27;44.42;103542.44;5055823;28;20128;-60
2022/01/14 06:39:59;;;;;;;4.47;2.35;;;;;;;18.28;44.63;103532.75;5055918;28;20497;-60
2022/01/14 06:42:24;;;;;;;4.67;2.50;;;;;;;18.28;44.54;103528.31;5055821;28;20041;-59
2022/01/14 06:44:50;;;;;;;4.82;2.45;;;;;;;18.29;44.50;103540.59;5056339;28;20274;-59
2022/01/14 06:47:15;;;;;;;4.65;2.35;;;;;;;18.31;44.47;103525.56;5056021;28;20029;-59
2022/01/14 06:49:40;;;;;;;5.20;2.30;;;;;;;18.30;44.51;103523.81;5054010;28;20074;-60
2022/01/14 06:52:06;;;;;;;6.03;2.70;;;;;;;18.33;44.42;103527.28;5054703;28;20312;-60
2022/01/14 06:54:31;;;;;;;4.65;2.67;;;;;;;18.32;44.61;103505.28;5054196;28;20037;-60
2022/01/14 06:57:05;;;;;;;4.77;2.80;;;;;;;18.33;44.49;103516.72;5053901;28;20044;-60
2022/01/14 06:59:31;;;;;;;;;;;;;;;18.33;44.47;103514.09;5054794;28;20274;-60
2022/01/14 07:01:56;;;;;;;5.32;2.70;;;;;;;18.34;44.23;103523.72;5053662;28;19924;-61
2022/01/14 07:04:21;;;;;;;6.95;2.75;;;;;;;18.35;44.58;103526.28;5054195;28;20021;-60
2022/01/14 07:06:47;;;;;;;5.40;2.58;;;;;;;18.34;44.82;103529.88;5053701;28;20029;-60
2022/01/14 07:09:12;;;;;;;5.18;2.97;;;;;;;18.36;45.00;103530.66;5053271;28;20017;-60
2022/01/14 07:11:37;;;;;;;5.07;2.78;;;;;;;18.37;44.72;103529.72;5053995;28;20037;-60
2022/01/14 07:14:04;;;;;;;4.70;2.55;;;;;;;18.39;45.01;103543.75;5054145;28;20024;-60
2022/01/14 07:16:33;;;;;;;4.72;2.70;;;;;;;18.39;44.69;103538.47;5053149;28;20048;-60
2022/01/14 07:19:00;;;;;;;4.97;2.85;;;;;;;18.41;44.75;103538.41;5053901;28;20017;-60
2022/01/14 07:21:25;;;;;;;4.95;2.65;;;;;;;18.40;44.97;103548.06;5054071;28;20029;-60
2022/01/14 07:23:51;;;;;;;5.30;3.03;;;;;;;18.40;44.89;103545.44;5052742;28;20556;-60
2022/01/14 07:26:17;;;;;;;6.75;3.20;;;;;;;18.41;44.51;103555.09;5053993;28;20450;-60
2022/01/14 07:28:42;;;;;;;6.18;2.85;;;;;;;18.44;44.43;103559.41;5053471;28;20539;-61
2022/01/14 07:31:07;;;;;;;5.32;3.00;;;;;;;18.42;44.74;103554.19;5052980;28;20033;-59
2022/01/14 07:33:33;;;;;;;4.80;2.80;;;;;;;18.43;44.81;103541.81;5053398;28;20046;-60
2022/01/14 07:35:58;;;;;;;5.45;3.22;;;;;;;18.41;43.71;103541.88;5053461;28;20044;-60
2022/01/14 07:38:26;;;;;;;5.93;3.17;;;;;;;18.41;44.46;103548.97;5053099;28;20468;-61
2022/01/14 07:40:55;;;;;;;5.90;2.95;;;;;;;18.42;44.79;103538.34;5052722;28;20116;-59
2022/01/14 07:43:21;;;;;;;5.57;2.88;;;;;;;18.45;44.60;103553.19;5053627;28;20037;-60
2022/01/14 07:45:49;;;;;;;4.82;2.75;;;;;;;18.46;44.71;103550.47;5052362;28;20452;-61
2022/01/14 07:48:15;;;;;;;6.55;3.20;;;;;;;18.48;44.57;103539.84;5053509;28;20025;-61
2022/01/14 07:50:40;;;;;;;5.75;3.10;;;;;;;18.50;44.80;103551.25;5053030;28;20044;-61
2022/01/14 07:53:05;;;;;;;5.10;3.40;;;;;;;18.52;44.97;103541.47;5052470;28;20039;-61
2022/01/14 07:55:31;;;;;;;5.67;3.00;;;;;;;18.54;44.61;103536.13;5052921;28;20270;-61
2022/01/14 07:57:56;;;;;;;5.88;3.35;;;;;;;18.55;44.93;103533.41;5052458;28;20290;-60
2022/01/14 08:00:22;;;;;;;6.20;2.80;;;;;;;18.58;44.77;103545.63;5053241;28;20017;-61
2022/01/14 08:02:47;;;;;;;5.80;3.30;;;;;;;18.59;45.18;103542.91;5052853;28;20025;-61
2022/01/14 08:05:15;;;;;;;5.75;2.72;;;;;;;18.61;45.03;103530.53;5052488;28;20025;-60
2022/01/14 08:07:45;;;;;;;5.43;3.20;;;;;;;18.62;45.01;103534.88;5052942;28;20036;-61
2022/01/14 08:10:12;;;;;;;6.63;3.00;;;;;;;18.63;44.93;103538.38;5053118;28;20029;-61
2022/01/14 08:12:37;;;;;;;6.22;3.50;;;;;;;18.65;45.13;103541.81;5052018;28;20029;-62
2022/01/14 08:15:04;;;;;;;5.88;3.08;;;;;;;18.65;44.93;103542.66;5052898;28;20492;-63
2022/01/14 08:17:31;;;;;;;5.57;3.38;;;;;;;18.67;44.87;103548.78;5052351;28;20021;-63
2022/01/14 08:19:56;;;;;;;5.40;3.00;;;;;;;18.70;44.93;103550.41;5052350;28;20100;-63
2022/01/14 08:22:22;;;;;;;5.72;3.53;;;;;;;18.70;45.04;103542.47;5053093;28;20147;-63
2022/01/14 08:24:47;;;;;;;7.07;3.08;;;;;;;18.70;44.76;103550.41;5052630;28;20025;-63
2022/01/14 08:27:12;;;;;;;6.70;3.45;;;;;;;18.71;44.90;103520.44;5052039;28;20040;-63
2022/01/14 08:29:38;;;;;;;5.93;3.13;;;;;;;18.71;45.12;103536.28;5052473;28;20024;-63
2022/01/14 08:32:03;;;;;;;5.72;3.35;;;;;;;18.71;45.06;103525.72;5052591;28;20078;-62
2022/01/14 08:34:29;;;;;;;6.75;3.45;;;;;;;18.71;45.12;103525.72;5052176;28;20108;-62
2022/01/14 08:36:55;;;;;;;6.53;3.55;;;;;;;18.71;45.44;103520.44;5052488;28;20049;-62
2022/01/14 08:39:20;;;;;;;5.40;3.33;;;;;;;18.73;45.22;103510.66;5052695;28;20388;-62
2022/01/14 08:41:46;;;;;;;5.00;3.23;;;;;;;18.74;45.22;103516.78;5051648;28;20093;-62
2022/01/14 08:44:13;;;;;;;5.18;3.28;;;;;;;18.73;45.56;103513.31;5052597;28;20286;-63
2022/01/14 08:46:42;;;;;;;5.57;3.13;;;;;;;18.75;45.54;103521.16;5052130;28;20029;-62
2022/01/14 08:49:09;;;;;;;5.63;3.67;;;;;;;18.71;43.24;103551.25;5052131;28;20381;-62
2022/01/14 08:51:36;;;;;;;5.82;3.58;;;;;;;18.70;45.05;103562.75;5052250;28;20024;-62
2022/01/14 08:54:02;;;;;;;5.88;3.60;;;;;;;18.70;45.37;103562.75;5056405;28;20082;-62
2022/01/14 08:56:29;;;;;;;8.60;3.50;;;;;;;18.70;45.38;103560.97;5055936;28;20032;-62
2022/01/14 08:58:54;;;;;;;8.52;3.47;;;;;;;18.71;45.28;103538.06;5056053;28;20059;-63
2022/01/14 09:01:19;;;;;;;7.00;3.70;;;;;;;18.72;45.13;103521.28;5055755;28;20025;-62
2022/01/14 09:03:45;;;;;;;5.35;3.55;;;;;;;18.72;44.96;103523.94;5056294;28;20319;-62
2022/01/14 09:06:10;;;;;;;6.22;3.70;;;;;;;18.74;45.11;103522.06;5056494;28;20053;-62
2022/01/14 09:08:35;;;;;;;6.53;3.30;;;;;;;18.74;44.72;103525.59;5055516;28;20384;-63
2022/01/14 09:11:01;;;;;;;6.00;3.60;;;;;;;18.74;44.90;103530.00;5056424;28;20055;-63
2022/01/14 09:13:26;;;;;;;6.95;3.75;;;;;;;18.76;44.94;103528.19;5056250;28;20294;-63
2022/01/14 09:15:51;;;;;;;7.30;3.70;;;;;;;18.77;45.10;103533.41;5055185;28;20021;-63
2022/01/14 09:18:17;;;;;;;5.63;3.07;;;;;;;18.77;45.05;103533.41;5056449;28;20029;-63
2022/01/14 09:20:42;;;;;;;5.97;3.53;;;;;;;18.79;45.32;103549.19;5055997;28;20768;-63
2022/01/14 09:23:13;;;;;;;6.03;3.10;;;;;;;18.81;45.33;103542.91;5055608;28;20296;-63
2022/01/14 09:25:41;;;;;;;7.13;3.95;;;;;;;18.81;45.25;103542.03;5055696;28;20036;-62
2022/01/14 09:28:06;;;;;;;8.52;3.35;;;;;;;18.82;45.05;103541.97;5056033;28;20037;-61
2022/01/14 09:30:32;;;;;;;5.03;3.30;;;;;;;18.85;44.95;103525.19;5054985;28;20538;-61
2022/01/14 09:32:57;;;;;;;5.97;3.63;;;;;;;18.87;45.71;103538.31;5056017;28;20530;-61
2022/01/14 09:35:23;;;;;;;7.30;3.45;;;;;;;18.89;45.55;103552.34;5055881;28;20419;-61
2022/01/14 09:37:50;;;;;;;5.88;3.63;;;;;;;18.89;45.20;103541.75;5054835;28;20328;-61
2022/01/14 09:40:16;;;;;;;6.15;3.35;;;;;;;18.89;45.33;103544.41;5055682;28;20044;-61
2022/01/14 09:42:49;;;;;;;6.30;3.55;;;;;;;18.91;45.45;103529.34;5055404;28;20414;-62
2022/01/14 09:45:15;;;;;;;6.55;3.60;;;;;;;18.91;45.63;103529.34;5054842;28;20469;-61
2022/01/14 09:47:42;;;;;;;7.35;3.70;;;;;;;18.92;45.63;103546.91;5055634;28;20025;-62
2022/01/14 09:50:08;;;;;;;5.90;3.88;;;;;;;18.92;45.51;103545.13;5055694;28;20171;-61
2022/01/14 09:52:35;;;;;;;5.75;3.17;;;;;;;18.93;45.82;103541.56;5054671;28;20025;-63
2022/01/14 09:55:01;;;;;;;6.53;3.60;;;;;;;18.94;45.78;103545.91;5055122;28;20033;-62
2022/01/14 09:57:26;;;;;;;4.82;3.35;;;;;;;18.95;45.91;103544.16;5055206;28;20048;-61
2022/01/14 09:59:53;;;;;;;5.70;3.30;;;;;;;18.94;45.78;103551.19;5054619;28;20044;-61
2022/01/14 10:02:40;;;;;;;5.43;3.58;;;;;;;18.96;45.85;103559.06;5055605;28;20277;-60
2022/01/14 10:05:07;;;;;;;7.85;3.67;;;;;;;18.96;45.73;103561.69;5053996;28;20020;-62
2022/01/14 10:07:33;;;;;;;7.17;3.60;;;;;;;18.97;45.81;103566.06;5055017;28;20039;-61
2022/01/14 10:10:00;;;;;;;6.43;3.28;;;;;;;18.97;45.74;103563.44;5055286;28;20376;-60
2022/01/14 10:12:31;;;;;;;7.60;3.65;;;;;;;18.96;45.86;103556.41;5054708;28;20100;-62
2022/01/14 10:15:06;;;;;;;6.43;3.70;;;;;;;18.96;45.90;103574.91;5055839;28;20041;-61
2022/01/14 10:17:37;;;;;;;5.72;3.58;;;;;;;18.96;46.06;103575.81;5054768;28;20074;-61
2022/01/14 10:20:05;;;;;;;7.32;3.75;;;;;;;18.97;45.84;103572.22;5054124;28;20033;-61
2022/01/14 10:22:33;;;;;;;5.72;3.33;;;;;;;18.96;45.57;103577.56;5054542;28;20029;-61
2022/01/14 10:25:11;;;;;;;7.57;4.13;;;;;;;18.97;45.73;103588.06;5055020;28;20522;-61
2022/01/14 10:27:49;;;;;;;6.65;3.80;;;;;;;18.96;46.05;103585.50;5053935;28;20375;-61
2022/01/14 10:30:23;;;;;;;6.13;4.32;;;;;;;18.96;45.73;103578.44;5055120;28;20036;-61
2022/01/14 10:33:01;;;;;;;6.95;3.47;;;;;;;18.98;46.18;103568.66;5053355;28;20083;-61
2022/01/14 10:35:34;;;;;;;5.70;3.67;;;;;;;18.98;45.86;103566.00;5055189;28;20056;-61
2022/01/14 10:38:02;;;;;;;6.47;4.00;;;;;;;18.97;46.12;103568.72;5054937;28;20039;-61
2022/01/14 10:40:29;;;;;;;5.75;3.35;;;;;;;18.97;45.97;103560.78;5054095;28;20024;-71
2022/01/14 10:43:05;;;;;;;6.20;3.85;;;;;;;18.95;44.82;103560.84;5054793;28;20055;-60
2022/01/14 10:45:34;;;;;;;8.32;4.80;;;;;;;18.92;44.21;103557.50;5054139;28;20504;-61
2022/01/14 10:48:02;;;;;;;6.03;4.07;;;;;;;18.86;45.28;103550.66;5053929;28;20074;-60
2022/01/14 10:50:29;;;;;;;6.40;4.30;;;;;;;18.89;45.58;103544.41;5054645;28;20021;-60
2022/01/14 10:52:54;;;;;;;9.90;4.07;;;;;;;18.90;46.02;103567.25;5054294;28;20036;-60
2022/01/14 10:55:35;;;;;;;6.75;4.13;;;;;;;18.90;46.12;103548.75;5053767;28;20037;-60
2022/01/14 10:58:02;;;;;;;7.75;3.80;;;;;;;18.90;46.00;103554.91;5054280;28;20036;-60
2022/01/14 11:00:28;;;;;;;8.23;4.10;;;;;;;18.88;46.25;103543.53;5054480;28;20052;-60
2022/01/14 11:02:53;;;;;;;6.22;4.45;;;;;;;18.89;44.95;103544.41;5053502;28;20072;-60
2022/01/14 11:05:24;;;;;;;7.57;5.13;;;;;;;18.86;44.81;103553.31;5054317;28;20507;-60
2022/01/14 11:07:51;;;;;;;7.03;4.05;;;;;;;18.85;45.46;103544.53;5053185;28;20487;-61
2022/01/14 11:10:26;;;;;;;6.97;4.88;;;;;;;18.86;45.70;103545.38;5054021;28;20013;-60
2022/01/14 11:12:53;;;;;;;6.55;4.03;;;;;;;18.87;45.80;103538.31;5053976;28;20021;-61
2022/01/14 11:15:19;;;;;;;6.00;3.70;;;;;;;18.87;45.87;103538.31;5052809;28;20405;-60
2022/01/14 11:17:50;;;;;;;6.95;4.20;;;;;;;18.88;46.03;103535.59;5052928;28;20542;-59
2022/01/14 11:20:23;;;;;;;7.60;4.40;;;;;;;18.88;46.05;103538.25;5054120;28;20082;-61
2022/01/14 11:25:36;;;;;;;9.70;4.75;;;;;;;18.84;44.81;103531.38;5053899;28;20083;-60
2022/01/14 11:28:02;;;;;;;6.88;4.35;;;;;;;18.84;45.12;103532.22;5054145;28;20037;-62
2022/01/14 11:30:32;;;;;;;10.38;5.32;;;;;;;18.90;45.14;103532.88;5053645;28;20025;-62
2022/01/14 11:33:02;;;;;;;7.88;4.28;;;;;;;19.01;45.88;103530.69;5053854;28;20477;-65
2022/01/14 11:35:32;;;;;;;12.98;5.35;;;;;;;19.12;43.92;103533.72;5054077;28;20548;-63
2022/01/14 11:37:58;;;;;;;7.25;4.60;;;;;;;19.23;44.18;103529.72;5053343;28;20025;-66
2022/01/14 11:40:24;;;;;;;8.60;4.25;;;;;;;19.31;44.38;103532.91;5053758;28;20021;-63
2022/01/14 11:43:04;;;;;;;7.97;4.63;;;;;;;19.35;44.45;103539.78;5053553;28;20048;-63
2022/01/14 11:45:47;;;;;;;8.68;4.47;;;;;;;19.38;44.35;103537.00;5053477;28;20025;-63
2022/01/14 11:48:52;;;;;;;7.07;4.72;;;;;;;19.36;44.34;103536.22;5054059;28;20041;-63
2022/01/14 11:51:18;;;;;;;7.72;4.95;;;;;;;19.31;42.57;103536.41;5052769;28;20052;-63
2022/01/14 11:53:54;;;;;;;7.10;5.43;;;;;;;19.26;42.85;103530.44;5053221;28;20063;-63